Time;durP1;ratioP1;P1;durP2;ratioP2;P2;SDS_P1;SDS_P2;PMS_P1;PMS_P2;Temp;Humidity;BMP_temperature;BMP_pressure;BME280_temperature;BME280_humidity;BME280_pressure;Samples;Min_cycle;Max_cycle;Signal;HPM_P1;HPM_P2
2024/03/09 00:00:28;;;;;;;38.90;21.90;;;;;;;-2.00;100.00;101034.35;105812;1257;72704;-75
2024/03/09 00:02:56;;;;;;;30.90;20.20;;;;;;;-2.02;100.00;101033.67;105935;1255;60319;-75
2024/03/09 00:05:26;;;;;;;34.70;19.20;;;;;;;-2.02;100.00;101031.43;106029;1265;59616;-76
2024/03/09 00:07:54;;;;;;;36.60;20.00;;;;;;;-2.02;100.00;101032.28;105857;1251;74317;-74
2024/03/09 00:10:28;;;;;;;33.90;19.80;;;;;;;-2.03;100.00;101028.70;105818;1255;63955;-75
2024/03/09 00:12:58;;;;;;;45.70;20.30;;;;;;;-2.03;100.00;101025.96;105935;1253;71153;-75
2024/03/09 00:15:25;;;;;;;30.10;18.30;;;;;;;-2.02;100.00;101022.53;105773;1256;60916;-74
2024/03/09 00:17:53;;;;;;;32.00;19.60;;;;;;;-1.99;100.00;101022.52;105824;1256;59614;-74
2024/03/09 00:20:21;;;;;;;28.20;16.90;;;;;;;-1.96;100.00;101021.32;105918;1256;71837;-76
2024/03/09 00:22:49;;;;;;;30.80;17.90;;;;;;;-1.92;100.00;101019.27;105893;1251;62689;-74
2024/03/09 00:25:17;;;;;;;30.50;18.70;;;;;;;-1.88;100.00;101017.19;105848;1253;72731;-74
2024/03/09 00:27:44;;;;;;;30.40;17.60;;;;;;;-1.87;100.00;101017.52;105903;1256;59714;-75
2024/03/09 00:30:22;;;;;;;34.00;19.80;;;;;;;-1.87;100.00;101012.56;105883;1254;60017;-74
2024/03/09 00:32:51;;;;;;;30.20;18.60;;;;;;;-1.90;100.00;101014.63;105872;1253;72956;-75
2024/03/09 00:35:18;;;;;;;32.80;18.40;;;;;;;-1.95;100.00;101014.64;105812;1256;63902;-74
2024/03/09 00:37:45;;;;;;;34.60;18.30;;;;;;;-2.00;100.00;101011.04;105763;1256;72607;-75
2024/03/09 00:40:12;;;;;;;34.70;19.20;;;;;;;-2.04;100.00;101010.20;105763;1256;59718;-73
2024/03/09 00:42:39;;;;;;;33.60;21.50;;;;;;;-2.10;100.00;101011.08;105844;1256;60242;-75
2024/03/09 00:45:08;;;;;;;31.70;19.70;;;;;;;-2.16;100.00;101013.98;105811;1255;73040;-75
2024/03/09 00:47:36;;;;;;;36.30;20.40;;;;;;;-2.20;100.00;101008.17;105827;1259;63852;-74
2024/03/09 00:50:04;;;;;;;38.40;21.00;;;;;;;-2.24;100.00;101010.23;105806;1256;71285;-73
2024/03/09 00:52:31;;;;;;;32.90;18.90;;;;;;;-2.27;100.00;101006.45;105918;1256;60389;-76
2024/03/09 00:54:58;;;;;;;38.30;21.80;;;;;;;-2.30;100.00;101007.67;105932;1257;60174;-76
2024/03/09 00:57:25;;;;;;;38.30;19.20;;;;;;;-2.33;100.00;101006.48;106013;1264;73025;-74
2024/03/09 00:59:52;;;;;;;40.40;20.30;;;;;;;-2.35;100.00;101006.13;105832;1257;64127;-75
2024/03/09 01:02:19;;;;;;;44.50;22.30;;;;;;;-2.35;100.00;101005.27;105922;1251;72707;-75
2024/03/09 01:04:48;;;;;;;42.40;21.90;;;;;;;-2.36;100.00;101002.70;105928;1256;61060;-75
2024/03/09 01:07:19;;;;;;;41.40;21.90;;;;;;;-2.34;100.00;100999.97;105992;1256;60165;-75
2024/03/09 01:09:50;;;;;;;43.90;23.50;;;;;;;-2.31;100.00;101000.83;105903;1256;72923;-74
2024/03/09 01:12:17;;;;;;;40.90;21.60;;;;;;;-2.27;100.00;100999.79;106671;1251;63916;-73
2024/03/09 01:14:48;;;;;;;33.50;19.60;;;;;;;-2.23;100.00;100996.71;108587;1251;71398;-72
2024/03/09 01:17:21;;;;;;;45.80;22.40;;;;;;;-2.20;100.00;100988.30;108598;1251;59464;-74
2024/03/09 01:19:47;;;;;;;42.00;23.00;;;;;;;-2.17;100.00;100989.84;108007;1256;60117;-75
2024/03/09 01:22:17;;;;;;;43.90;22.60;;;;;;;-2.14;100.00;100988.81;106039;1255;72905;-76
2024/03/09 01:24:44;;;;;;;43.20;21.40;;;;;;;-2.13;100.00;100986.75;106131;1255;63905;-75
2024/03/09 01:27:12;;;;;;;41.90;23.20;;;;;;;-2.13;100.00;100984.53;106270;1255;72661;-73
2024/03/09 01:29:44;;;;;;;40.10;19.80;;;;;;;-2.14;100.00;100979.91;105863;1255;60320;-75
2024/03/09 01:32:11;;;;;;;38.30;20.80;;;;;;;-2.15;100.00;100978.02;106001;1255;60350;-75
2024/03/09 01:34:39;;;;;;;40.60;21.70;;;;;;;-2.17;100.00;100976.66;105913;1253;73084;-75
2024/03/09 01:37:06;;;;;;;37.00;20.40;;;;;;;-2.19;100.00;100973.23;105994;1255;63872;-75
2024/03/09 01:39:33;;;;;;;34.40;20.30;;;;;;;-2.20;100.00;100976.33;105796;1254;73412;-74
2024/03/09 01:42:01;;;;;;;38.70;20.20;;;;;;;-2.21;100.00;100973.59;105905;1264;60352;-77
2024/03/09 01:44:28;;;;;;;35.30;20.10;;;;;;;-2.22;100.00;100972.05;105848;1255;61049;-75
2024/03/09 01:46:55;;;;;;;35.10;19.70;;;;;;;-2.24;100.00;100970.86;105745;1256;73112;-75
2024/03/09 01:49:22;;;;;;;32.00;19.40;;;;;;;-2.24;100.00;100970.67;105871;1264;63799;-77
2024/03/09 01:51:50;;;;;;;39.50;20.70;;;;;;;-2.25;100.00;100967.08;105922;1256;70047;-76
2024/03/09 01:54:23;;;;;;;34.20;19.10;;;;;;;-2.24;100.00;100971.03;105719;1258;60249;-76
2024/03/09 01:56:51;;;;;;;32.50;17.90;;;;;;;-2.23;100.00;100965.19;105760;1257;59570;-78
2024/03/09 01:59:18;;;;;;;34.50;19.50;;;;;;;-2.21;100.00;100966.05;105793;1251;73059;-74
2024/03/09 02:01:45;;;;;;;32.00;18.50;;;;;;;-2.18;100.00;100966.22;105802;1256;63922;-75
2024/03/09 02:04:12;;;;;;;29.80;17.40;;;;;;;-2.15;100.00;100962.95;105774;1256;71589;-74
2024/03/09 02:06:40;;;;;;;34.80;17.10;;;;;;;-2.09;100.00;100967.73;105851;1257;60531;-75
2024/03/09 02:09:10;;;;;;;29.40;16.70;;;;;;;-2.03;100.00;100964.98;105803;1256;60521;-75
2024/03/09 02:11:36;;;;;;;33.00;16.50;;;;;;;-1.96;100.00;100964.96;105792;1257;72857;-74
2024/03/09 02:14:04;;;;;;;34.70;17.30;;;;;;;-1.89;100.00;100965.45;105802;1265;63835;-75
2024/03/09 02:16:32;;;;;;;30.50;16.70;;;;;;;-1.84;100.00;100966.45;105846;1254;71366;-76
2024/03/09 02:19:00;;;;;;;31.70;18.40;;;;;;;-1.81;100.00;100964.05;105885;1256;60393;-76
2024/03/09 02:21:27;;;;;;;32.60;17.90;;;;;;;-1.80;100.00;100963.70;105751;1251;60562;-74
2024/03/09 02:24:02;;;;;;;31.80;18.40;;;;;;;-1.78;100.00;100967.30;105880;1255;73300;-75
2024/03/09 02:26:30;;;;;;;28.50;16.20;;;;;;;-1.77;100.00;100968.50;105804;1255;64127;-74
2024/03/09 02:28:59;;;;;;;30.40;16.30;;;;;;;-1.78;100.00;100969.19;105744;1257;71435;-74
2024/03/09 02:31:25;;;;;;;27.60;16.30;;;;;;;-1.79;100.00;100964.89;105738;1255;60479;-75
2024/03/09 02:33:55;;;;;;;36.10;19.50;;;;;;;-1.80;100.00;100965.59;105897;1251;60550;-76
2024/03/09 02:36:27;;;;;;;34.70;17.90;;;;;;;-1.81;100.00;100966.63;105909;1257;73923;-77
2024/03/09 02:38:54;;;;;;;30.10;18.20;;;;;;;-1.82;100.00;100965.43;105829;1256;62696;-76
2024/03/09 02:41:24;;;;;;;31.90;18.90;;;;;;;-1.82;100.00;100967.31;105843;1257;72677;-76
2024/03/09 02:43:56;;;;;;;32.90;18.90;;;;;;;-1.83;100.00;100965.08;105927;1251;60530;-74
2024/03/09 02:46:26;;;;;;;28.50;17.30;;;;;;;-1.84;100.00;100962.36;105900;1251;60531;-78
2024/03/09 02:48:53;;;;;;;34.90;18.20;;;;;;;-1.83;100.00;100960.29;105951;1251;74125;-76
2024/03/09 02:51:22;;;;;;;30.80;17.20;;;;;;;-1.82;100.00;100963.20;105919;1256;63775;-74
2024/03/09 02:53:51;;;;;;;33.80;18.00;;;;;;;-1.81;100.00;100959.61;106061;1251;72593;-74
2024/03/09 02:56:20;;;;;;;39.20;19.00;;;;;;;-1.80;100.00;100960.44;107057;1256;59189;-72
2024/03/09 02:58:47;;;;;;;35.20;17.50;;;;;;;-1.80;100.00;100960.63;106439;1251;60464;-72
2024/03/09 03:01:16;;;;;;;36.40;19.40;;;;;;;-1.79;100.00;100955.30;107521;1252;73646;-73
2024/03/09 03:03:49;;;;;;;35.30;17.70;;;;;;;-1.78;100.00;100952.73;107589;1256;62933;-73
2024/03/09 03:06:20;;;;;;;32.70;17.00;;;;;;;-1.78;100.00;100947.23;108067;1255;72592;-72
2024/03/09 03:08:53;;;;;;;34.70;20.20;;;;;;;-1.76;100.00;100952.55;105893;1256;60909;-75
2024/03/09 03:11:21;;;;;;;45.60;23.40;;;;;;;-1.75;100.00;100949.96;105947;1256;60724;-76
2024/03/09 03:13:49;;;;;;;45.60;22.90;;;;;;;-1.73;100.00;100951.67;105951;1252;74261;-75
2024/03/09 03:16:28;;;;;;;42.60;22.70;;;;;;;-1.72;100.00;100946.52;105883;1251;63901;-75
2024/03/09 03:18:59;;;;;;;43.80;23.60;;;;;;;-1.72;100.00;100950.64;105918;1255;72464;-73
2024/03/09 03:21:26;;;;;;;44.20;22.00;;;;;;;-1.72;100.00;100947.23;105815;1254;60533;-75
2024/03/09 03:23:53;;;;;;;34.40;19.30;;;;;;;-1.71;100.00;100943.96;105905;1255;60559;-76
2024/03/09 03:26:20;;;;;;;33.50;18.20;;;;;;;-1.70;100.00;100943.27;106057;1256;73928;-76
2024/03/09 03:28:49;;;;;;;38.40;21.20;;;;;;;-1.71;100.00;100942.77;105911;1255;62328;-76
2024/03/09 03:31:17;;;;;;;32.10;19.10;;;;;;;-1.70;100.00;100941.05;105805;1251;71526;-75
2024/03/09 03:33:44;;;;;;;39.70;20.60;;;;;;;-1.69;100.00;100936.06;105877;1255;60538;-75
2024/03/09 03:36:13;;;;;;;49.50;21.30;;;;;;;-1.68;100.00;100939.49;105939;1251;60470;-74
2024/03/09 03:38:44;;;;;;;48.60;23.80;;;;;;;-1.67;100.00;100937.95;105882;1251;73842;-74
2024/03/09 03:41:11;;;;;;;38.10;21.30;;;;;;;-1.67;100.00;100937.27;106139;1255;63661;-73
2024/03/09 03:43:39;;;;;;;43.70;23.70;;;;;;;-1.66;100.00;100941.02;106138;1251;71390;-76
2024/03/09 03:46:09;;;;;;;47.80;25.40;;;;;;;-1.67;100.00;100938.29;106040;1251;60491;-75
2024/03/09 03:48:39;;;;;;;47.30;22.90;;;;;;;-1.68;100.00;100942.23;105815;1251;60405;-75
2024/03/09 03:51:12;;;;;;;45.30;24.20;;;;;;;-1.69;100.00;100941.05;105890;1254;71456;-76
2024/03/09 03:53:40;;;;;;;46.90;24.20;;;;;;;-1.68;100.00;100939.31;105814;1255;63908;-78
2024/03/09 03:56:07;;;;;;;51.00;22.80;;;;;;;-1.69;100.00;100941.89;105903;1257;72389;-75
2024/03/09 03:58:35;;;;;;;48.20;26.00;;;;;;;-1.70;100.00;100943.61;105991;1257;60368;-76
2024/03/09 04:01:02;;;;;;;49.10;23.90;;;;;;;-1.71;100.00;100942.77;106135;1257;60297;-75
2024/03/09 04:03:31;;;;;;;50.40;25.90;;;;;;;-1.72;100.00;100943.27;106180;1255;73744;-76
2024/03/09 04:05:59;;;;;;;47.10;24.10;;;;;;;-1.72;100.00;100945.33;105908;1256;63115;-75
2024/03/09 04:08:27;;;;;;;50.10;25.80;;;;;;;-1.72;100.00;100947.21;105998;1251;71093;-75
2024/03/09 04:10:55;;;;;;;51.10;25.90;;;;;;;-1.73;100.00;100945.52;105899;1251;60461;-76
2024/03/09 04:13:23;;;;;;;54.00;25.90;;;;;;;-1.73;100.00;100945.00;105897;1251;60429;-74
2024/03/09 04:15:53;;;;;;;47.60;24.00;;;;;;;-1.74;100.00;100945.00;105802;1251;73796;-76
2024/03/09 04:18:26;;;;;;;59.10;27.50;;;;;;;-1.74;100.00;100948.61;105907;1257;63967;-76
2024/03/09 04:20:55;;;;;;;55.60;25.80;;;;;;;-1.71;100.00;100946.20;105810;1257;71176;-74
2024/03/09 04:23:23;;;;;;;52.40;26.20;;;;;;;-1.66;100.00;100951.65;105760;1255;60524;-75
2024/03/09 04:25:53;;;;;;;56.70;26.40;;;;;;;-1.60;100.00;100953.34;105915;1251;60444;-75
2024/03/09 04:28:27;;;;;;;50.00;26.60;;;;;;;-1.53;100.00;100948.52;105814;1255;73530;-75
2024/03/09 04:30:54;;;;;;;66.30;31.20;;;;;;;-1.47;100.00;100950.36;105954;1251;62951;-76
2024/03/09 04:33:21;;;;;;;58.20;29.40;;;;;;;-1.42;100.00;100950.67;105891;1251;72653;-76
2024/03/09 04:35:48;;;;;;;47.80;26.90;;;;;;;-1.38;100.00;100953.40;105886;1257;60554;-75
2024/03/09 04:38:16;;;;;;;60.40;27.80;;;;;;;-1.36;100.00;100951.33;105871;1256;60416;-73
2024/03/09 04:40:46;;;;;;;62.80;31.10;;;;;;;-1.35;100.00;100953.73;105950;1251;73851;-76
2024/03/09 04:43:13;;;;;;;61.80;28.30;;;;;;;-1.34;100.00;100954.58;105903;1256;64337;-76
2024/03/09 04:46:47;;;;;;;62.40;29.80;;;;;;;-1.32;100.00;100955.59;102699;1292;600701;-76
2024/03/09 04:49:14;;;;;;;60.50;30.30;;;;;;;-1.32;100.00;100958.86;104894;1271;59969;-75
2024/03/09 04:51:42;;;;;;;64.30;30.20;;;;;;;-1.31;100.00;100958.52;104901;1272;60003;-75
2024/03/09 04:54:10;;;;;;;66.50;30.60;;;;;;;-1.31;100.00;100962.80;104902;1269;69727;-75
2024/03/09 04:56:38;;;;;;;67.00;31.10;;;;;;;-1.27;100.00;100969.11;104912;1269;63277;-76
2024/03/09 04:59:05;;;;;;;71.10;32.90;;;;;;;-1.20;100.00;100970.79;104914;1270;72774;-76
2024/03/09 05:01:33;;;;;;;63.90;30.40;;;;;;;-1.01;100.00;100974.45;104825;1269;216764;-76
2024/03/09 05:04:00;;;;;;;59.30;30.20;;;;;;;-0.72;100.00;100978.35;104970;1268;60332;-76
2024/03/09 05:06:29;;;;;;;59.10;30.50;;;;;;;-0.37;100.00;100977.02;105436;1261;71148;-77
2024/03/09 05:08:57;;;;;;;59.50;30.80;;;;;;;0.07;100.00;100981.57;105583;1255;62730;-75
2024/03/09 05:11:24;;;;;;;58.90;27.70;;;;;;;0.58;100.00;100980.95;105599;1255;72472;-75
2024/03/09 05:13:53;;;;;;;63.80;29.90;;;;;;;1.08;100.00;100987.15;105609;1260;59695;-76
2024/03/09 05:16:21;;;;;;;65.70;29.70;;;;;;;1.40;99.81;100986.31;105784;1255;59627;-76
2024/03/09 05:18:49;;;;;;;51.30;29.90;;;;;;;1.54;96.67;100992.46;105725;1253;73012;-77
2024/03/09 05:21:17;;;;;;;54.40;31.80;;;;;;;1.67;94.59;100992.23;105827;1257;62654;-77
2024/03/09 05:23:45;;;;;;;81.40;31.40;;;;;;;1.95;93.25;100993.45;105703;1260;72393;-76
2024/03/09 05:26:14;;;;;;;48.60;28.80;;;;;;;2.25;89.46;100995.48;105922;1254;59616;-76
2024/03/09 05:28:44;;;;;;;46.90;26.90;;;;;;;2.40;84.93;100996.56;105813;1256;60114;-76
2024/03/09 05:31:31;;;;;;;50.50;28.20;;;;;;;2.42;82.99;100993.77;105838;1257;71738;-75
2024/03/09 05:34:00;;;;;;;53.50;27.40;;;;;;;2.39;82.66;100996.41;105731;1254;62870;-76
2024/03/09 05:36:29;;;;;;;58.20;31.00;;;;;;;2.39;82.77;101001.08;106161;1254;71384;-72
2024/03/09 05:38:57;;;;;;;53.30;28.60;;;;;;;2.40;82.78;101002.95;105746;1257;59741;-75
2024/03/09 05:41:27;;;;;;;65.00;31.10;;;;;;;2.45;83.55;101006.28;105718;1255;59668;-76
2024/03/09 05:43:55;;;;;;;55.40;29.90;;;;;;;2.52;82.88;101005.30;105903;1257;73103;-75
2024/03/09 05:46:23;;;;;;;56.90;29.30;;;;;;;2.56;82.52;101003.86;105918;1254;62064;-76
2024/03/09 05:48:50;;;;;;;57.70;29.60;;;;;;;2.57;81.72;101004.51;105757;1257;72956;-77
2024/03/09 05:51:18;;;;;;;52.70;27.30;;;;;;;2.58;81.56;101001.71;105844;1254;59746;-76
2024/03/09 05:53:49;;;;;;;56.80;28.10;;;;;;;2.61;82.05;101002.18;105856;1257;59666;-76
2024/03/09 05:56:17;;;;;;;59.40;32.50;;;;;;;2.64;81.93;101003.48;105939;1258;73156;-76
2024/03/09 05:58:46;;;;;;;58.30;31.10;;;;;;;2.66;82.16;101003.62;105660;1253;63546;-74
2024/03/09 06:01:13;;;;;;;59.90;32.00;;;;;;;2.71;82.33;101001.10;105708;1258;72739;-75
2024/03/09 06:03:42;;;;;;;59.10;32.10;;;;;;;2.78;82.21;101007.16;105708;1256;59625;-74
2024/03/09 06:06:12;;;;;;;61.40;33.00;;;;;;;2.89;81.92;101005.55;105763;1252;59608;-75
2024/03/09 06:08:39;;;;;;;64.80;33.40;;;;;;;3.04;82.12;101004.36;105711;1257;73586;-75
2024/03/09 06:11:07;;;;;;;67.20;33.90;;;;;;;3.27;81.96;101007.45;105737;1253;61641;-76
2024/03/09 06:13:35;;;;;;;62.10;34.00;;;;;;;3.54;80.49;101008.36;105761;1258;71268;-75
2024/03/09 06:16:04;;;;;;;62.50;35.80;;;;;;;3.78;77.95;101007.94;105773;1258;59683;-75
2024/03/09 06:18:31;;;;;;;93.30;40.60;;;;;;;3.97;76.08;101006.05;105671;1260;59548;-75
2024/03/09 06:20:59;;;;;;;65.50;34.80;;;;;;;4.11;73.43;101005.50;105715;1257;73239;-75
2024/03/09 06:23:27;;;;;;;69.00;34.50;;;;;;;4.25;71.96;101008.77;105766;1254;62508;-75
2024/03/09 06:25:56;;;;;;;69.20;32.20;;;;;;;4.38;70.89;101002.67;105684;1257;72760;-74
2024/03/09 06:28:23;;;;;;;65.20;32.90;;;;;;;4.52;67.97;101006.77;105792;1257;59688;-75
2024/03/09 06:30:51;;;;;;;55.10;31.00;;;;;;;4.64;66.83;101009.91;105751;1258;59648;-76
2024/03/09 06:33:19;;;;;;;54.90;29.40;;;;;;;4.72;66.15;101006.23;105695;1254;72975;-77
2024/03/09 06:35:47;;;;;;;55.20;28.90;;;;;;;4.81;65.60;101012.70;105602;1254;62551;-75
2024/03/09 06:38:14;;;;;;;67.50;33.00;;;;;;;4.87;65.20;101010.61;105814;1253;70982;-76
2024/03/09 06:40:45;;;;;;;52.40;30.40;;;;;;;4.94;65.20;101013.70;105760;1253;59689;-75
2024/03/09 06:43:14;;;;;;;60.60;32.30;;;;;;;5.01;64.81;101013.49;105740;1257;59715;-75
2024/03/09 06:45:45;;;;;;;66.20;30.30;;;;;;;5.07;64.89;101007.95;105786;1254;71921;-75
2024/03/09 06:48:14;;;;;;;50.50;27.00;;;;;;;5.11;63.70;101010.23;105782;1257;63676;-75
2024/03/09 06:50:44;;;;;;;50.50;26.80;;;;;;;5.16;63.57;101013.20;105662;1257;72650;-76
2024/03/09 06:53:13;;;;;;;53.00;26.50;;;;;;;5.20;63.02;101018.96;105754;1254;59666;-75
2024/03/09 06:55:41;;;;;;;45.80;26.70;;;;;;;5.24;63.55;101015.90;105718;1257;59589;-75
2024/03/09 06:58:11;;;;;;;40.90;24.90;;;;;;;5.28;62.77;101018.90;105862;1254;73164;-76
2024/03/09 07:00:40;;;;;;;47.30;24.50;;;;;;;5.34;63.03;101017.48;105654;1255;62938;-74
2024/03/09 07:03:09;;;;;;;50.00;25.70;;;;;;;5.39;62.14;101019.23;105713;1255;71503;-74
2024/03/09 07:05:36;;;;;;;43.80;24.20;;;;;;;5.39;61.46;101025.30;105657;1257;59645;-75
2024/03/09 07:08:09;;;;;;;58.30;25.90;;;;;;;5.39;61.30;101027.03;105678;1266;59791;-76
2024/03/09 07:10:38;;;;;;;41.70;24.10;;;;;;;5.36;60.70;101032.15;105692;1257;71447;-75
2024/03/09 07:13:06;;;;;;;47.80;22.60;;;;;;;5.32;60.24;101031.56;105694;1256;64006;-75
2024/03/09 07:15:33;;;;;;;46.80;25.60;;;;;;;5.32;60.59;101030.04;105771;1254;72884;-75
2024/03/09 07:18:02;;;;;;;40.40;23.50;;;;;;;5.36;60.75;101029.91;105671;1254;59972;-76
2024/03/09 07:20:33;;;;;;;54.90;26.00;;;;;;;5.43;61.05;101031.94;105718;1253;60083;-77
2024/03/09 07:23:01;;;;;;;41.10;22.00;;;;;;;5.53;61.54;101031.62;105684;1257;72074;-76
2024/03/09 07:25:30;;;;;;;39.20;23.00;;;;;;;5.57;61.77;101026.63;105697;1252;61634;-75
2024/03/09 07:27:59;;;;;;;39.30;21.70;;;;;;;5.59;61.34;101026.55;105699;1256;72656;-75
2024/03/09 07:30:27;;;;;;;39.40;22.50;;;;;;;5.62;61.63;101031.51;105752;1254;59744;-75
2024/03/09 07:32:54;;;;;;;36.20;22.00;;;;;;;5.66;61.47;101028.77;105707;1253;59744;-75
2024/03/09 07:35:27;;;;;;;36.40;23.30;;;;;;;5.72;61.34;101027.52;105771;1254;72926;-74
2024/03/09 07:37:59;;;;;;;42.80;24.00;;;;;;;5.81;61.07;101027.91;105635;1258;63471;-73
2024/03/09 07:40:32;;;;;;;42.00;23.70;;;;;;;5.93;60.94;101028.90;105700;1254;71282;-74
2024/03/09 07:43:00;;;;;;;36.70;21.50;;;;;;;6.06;60.68;101030.21;105832;1253;59743;-75
2024/03/09 07:45:29;;;;;;;39.60;22.10;;;;;;;6.22;60.37;101031.05;105688;1254;60409;-77
2024/03/09 07:47:58;;;;;;;35.20;22.10;;;;;;;6.41;60.14;101031.23;105860;1257;71046;-76
2024/03/09 07:50:27;;;;;;;34.40;19.70;;;;;;;6.54;59.54;101027.48;105958;1252;66057;-76
2024/03/09 07:52:56;;;;;;;34.60;18.90;;;;;;;6.68;58.72;101030.60;105738;1257;71406;-73
2024/03/09 07:55:25;;;;;;;34.30;20.00;;;;;;;6.81;57.76;101034.66;105745;1253;59728;-75
2024/03/09 07:57:54;;;;;;;38.60;21.30;;;;;;;6.88;57.00;101033.33;105803;1257;59568;-75
2024/03/09 08:00:39;;;;;;;29.90;19.40;;;;;;;6.94;56.55;101033.80;105783;1258;71866;-76
2024/03/09 08:03:07;;;;;;;34.60;20.80;;;;;;;7.01;56.59;101030.41;105735;1259;63662;-75
2024/03/09 08:05:35;;;;;;;29.90;19.90;;;;;;;7.04;56.51;101035.67;105704;1258;71488;-75
2024/03/09 08:08:03;;;;;;;34.20;20.50;;;;;;;7.06;56.67;101036.48;105943;1254;59689;-76
2024/03/09 08:10:31;;;;;;;33.30;20.80;;;;;;;7.11;56.30;101035.40;105954;1253;59685;-76
2024/03/09 08:13:00;;;;;;;30.90;21.10;;;;;;;7.16;55.91;101036.24;105681;1258;71963;-76
2024/03/09 08:15:28;;;;;;;29.40;18.70;;;;;;;7.16;56.14;101034.70;105798;1257;63872;-75
2024/03/09 08:17:58;;;;;;;38.30;20.90;;;;;;;7.13;56.35;101035.18;105688;1257;71485;-76
2024/03/09 08:20:26;;;;;;;33.70;19.50;;;;;;;7.12;56.09;101033.61;105666;1253;59785;-76
2024/03/09 08:22:54;;;;;;;28.00;19.70;;;;;;;7.14;55.82;101036.52;105791;1253;59730;-76
2024/03/09 08:25:27;;;;;;;33.70;19.20;;;;;;;7.14;56.16;101036.36;105723;1254;73242;-75
2024/03/09 08:27:55;;;;;;;36.30;20.60;;;;;;;7.13;56.50;101032.20;105699;1253;63432;-75
2024/03/09 08:30:23;;;;;;;29.20;19.20;;;;;;;7.21;56.55;101029.80;105638;1254;71146;-76
2024/03/09 08:32:54;;;;;;;27.80;19.20;;;;;;;7.39;56.38;101039.16;105712;1252;59719;-75
2024/03/09 08:35:22;;;;;;;30.50;19.90;;;;;;;7.73;56.49;101037.45;105707;1255;60263;-75
2024/03/09 08:37:52;;;;;;;23.80;17.50;;;;;;;8.03;54.38;101040.72;105688;1253;73277;-76
2024/03/09 08:40:23;;;;;;;28.70;20.10;;;;;;;8.19;52.41;101037.25;105761;1257;63625;-75
2024/03/09 08:42:51;;;;;;;26.30;16.50;;;;;;;8.23;51.77;101042.45;105704;1252;72787;-74
2024/03/09 08:45:21;;;;;;;28.50;17.00;;;;;;;8.23;51.54;101039.70;105764;1253;59747;-74
2024/03/09 08:47:50;;;;;;;25.90;16.90;;;;;;;8.20;51.21;101042.27;105740;1252;60074;-74
2024/03/09 08:50:21;;;;;;;25.90;16.10;;;;;;;8.15;51.22;101036.73;105749;1254;74367;-74
2024/03/09 08:52:49;;;;;;;29.70;16.40;;;;;;;8.06;51.08;101039.86;105726;1254;63090;-76
2024/03/09 08:55:18;;;;;;;23.50;17.60;;;;;;;8.03;51.22;101038.63;105742;1257;72750;-74
2024/03/09 08:57:48;;;;;;;21.70;14.90;;;;;;;8.00;51.75;101035.78;105730;1252;60429;-74
2024/03/09 09:00:19;;;;;;;27.60;16.00;;;;;;;8.03;52.16;101034.63;105669;1257;60435;-75
2024/03/09 09:02:47;;;;;;;23.40;15.40;;;;;;;8.04;51.67;101035.62;105699;1254;73785;-75
2024/03/09 09:05:15;;;;;;;22.80;15.00;;;;;;;8.10;51.32;101036.95;105666;1254;64540;-73
2024/03/09 09:07:45;;;;;;;25.10;16.60;;;;;;;8.20;50.92;101033.70;105615;1257;71186;-75
2024/03/09 09:10:14;;;;;;;24.60;17.80;;;;;;;8.28;50.59;101032.66;105832;1253;60431;-75
2024/03/09 09:12:43;;;;;;;21.80;15.70;;;;;;;8.42;51.23;101035.05;105818;1253;62416;-76
2024/03/09 09:15:11;;;;;;;23.30;16.00;;;;;;;8.59;51.30;101030.46;105813;1257;72904;-77
2024/03/09 09:17:40;;;;;;;25.70;15.50;;;;;;;8.77;49.83;101028.77;105698;1253;63733;-75
2024/03/09 09:20:11;;;;;;;23.40;16.00;;;;;;;8.94;48.94;101027.13;105797;1257;71800;-75
2024/03/09 09:22:42;;;;;;;29.30;20.20;;;;;;;9.18;48.94;101031.42;105787;1256;60442;-75
2024/03/09 09:25:12;;;;;;;30.20;18.10;;;;;;;9.47;47.85;101032.97;105761;1258;60552;-75
2024/03/09 09:27:43;;;;;;;24.00;17.00;;;;;;;9.83;46.62;101032.61;105771;1253;72670;-73
2024/03/09 09:30:11;;;;;;;22.60;16.40;;;;;;;10.22;46.04;101031.67;105716;1251;62235;-76
2024/03/09 09:32:40;;;;;;;24.50;16.10;;;;;;;10.75;45.49;101032.56;105782;1253;74844;-76
2024/03/09 09:35:11;;;;;;;31.20;19.80;;;;;;;11.32;43.97;101033.96;105734;1254;60542;-75
2024/03/09 09:37:40;;;;;;;21.60;16.00;;;;;;;11.90;42.75;101031.17;105726;1257;61402;-74
2024/03/09 09:40:08;;;;;;;20.70;14.40;;;;;;;12.42;41.20;101024.19;105812;1252;73335;-74
2024/03/09 09:42:36;;;;;;;21.90;16.00;;;;;;;12.85;39.87;101025.59;105794;1257;65632;-76
2024/03/09 09:45:05;;;;;;;22.90;15.00;;;;;;;13.34;38.89;101025.98;105603;1257;71078;-76
2024/03/09 09:47:33;;;;;;;21.10;15.30;;;;;;;13.63;38.22;101025.66;105715;1257;60547;-74
2024/03/09 09:50:01;;;;;;;21.60;16.20;;;;;;;13.76;37.25;101025.14;105757;1254;60454;-75
2024/03/09 09:52:30;;;;;;;18.70;13.90;;;;;;;13.93;36.59;101028.09;105759;1253;73548;-76
2024/03/09 09:54:58;;;;;;;18.40;14.20;;;;;;;13.93;36.30;101024.06;105801;1253;64155;-74
2024/03/09 09:57:26;;;;;;;17.60;14.20;;;;;;;13.83;36.38;101023.42;105697;1253;71915;-74
2024/03/09 09:59:54;;;;;;;20.60;15.20;;;;;;;13.67;36.35;101020.50;105759;1253;60501;-76
2024/03/09 10:02:22;;;;;;;19.30;15.90;;;;;;;13.50;36.51;101020.92;109566;1252;58860;-73
2024/03/09 10:04:51;;;;;;;18.70;13.20;;;;;;;13.39;36.21;101019.91;109538;1252;73875;-74
2024/03/09 10:07:19;;;;;;;19.80;14.90;;;;;;;13.33;36.42;101021.50;109584;1252;62512;-74
2024/03/09 10:09:48;;;;;;;17.20;13.90;;;;;;;13.38;36.55;101019.21;109569;1251;73064;-74
2024/03/09 10:12:19;;;;;;;20.00;13.10;;;;;;;13.56;36.13;101016.98;109574;1252;59040;-74
2024/03/09 10:14:47;;;;;;;15.90;12.20;;;;;;;13.86;35.19;101014.12;109569;1252;60396;-74
2024/03/09 10:17:15;;;;;;;15.00;11.60;;;;;;;14.27;35.07;101012.38;109541;1252;73138;-74
2024/03/09 10:19:44;;;;;;;15.50;11.70;;;;;;;14.64;33.94;101010.69;109560;1251;63553;-74
2024/03/09 10:22:11;;;;;;;18.20;10.80;;;;;;;14.96;33.52;101010.52;109544;1253;72748;-74
2024/03/09 10:24:52;;;;;;;17.10;11.80;;;;;;;15.32;32.79;101010.21;109536;1252;60404;-74
2024/03/09 10:27:26;;;;;;;16.00;12.60;;;;;;;15.79;32.26;101008.68;109630;1252;59880;-73
2024/03/09 10:30:11;;;;;;;16.70;12.30;;;;;;;16.22;31.70;101007.98;109553;1251;71992;-74
2024/03/09 10:32:41;;;;;;;20.00;12.40;;;;;;;16.57;31.09;101005.25;109548;1252;63787;-73
2024/03/09 10:35:09;;;;;;;17.60;11.70;;;;;;;16.72;31.05;101000.96;109553;1251;71486;-74
2024/03/09 10:37:38;;;;;;;14.10;11.50;;;;;;;16.68;30.73;101001.73;109566;1252;58170;-75
2024/03/09 10:40:16;;;;;;;14.20;11.70;;;;;;;16.63;30.95;101000.95;109553;1252;58460;-76
2024/03/09 10:42:45;;;;;;;15.90;12.00;;;;;;;16.57;30.88;100999.63;109590;1252;73924;-74
2024/03/09 10:45:15;;;;;;;19.30;12.50;;;;;;;16.52;30.63;100999.48;109574;1252;64484;-74
2024/03/09 10:47:50;;;;;;;14.80;12.50;;;;;;;16.32;30.39;100997.88;109539;1252;72516;-74
2024/03/09 10:50:28;;;;;;;17.20;13.00;;;;;;;16.19;30.69;100996.66;109554;1253;59370;-73
2024/03/09 10:53:07;;;;;;;15.50;12.30;;;;;;;16.19;30.73;100993.66;109613;1252;60118;-74
2024/03/09 10:55:59;;;;;;;17.90;12.60;;;;;;;16.33;30.25;100989.38;109572;1252;74990;-73
2024/03/09 10:58:27;;;;;;;14.30;11.20;;;;;;;16.35;29.93;100988.80;109454;1252;62740;-73
2024/03/09 11:00:55;;;;;;;13.90;10.60;;;;;;;16.44;30.40;100988.11;109576;1252;72608;-73
2024/03/09 11:03:23;;;;;;;14.90;11.70;;;;;;;16.65;30.39;100990.86;109422;1253;59898;-74
2024/03/09 11:05:55;;;;;;;14.10;10.70;;;;;;;16.90;29.77;100989.64;109623;1252;60963;-75
2024/03/09 11:08:22;;;;;;;19.60;11.30;;;;;;;17.07;29.83;100990.76;109605;1252;73193;-74
2024/03/09 11:10:51;;;;;;;17.80;12.00;;;;;;;17.26;29.67;100989.90;109540;1252;62583;-73